sensor_id;sensor_type;location;lat;lon;timestamp;P1;durP1;ratioP1;P2;durP2;ratioP2
61407;SDS011;47274;43.054;25.146;2023-11-19T00:02:44;6.27;;;3.40;;
61407;SDS011;47274;43.054;25.146;2023-11-19T00:05:35;8.40;;;3.93;;
61407;SDS011;47274;43.054;25.146;2023-11-19T00:08:34;6.93;;;3.70;;
61407;SDS011;47274;43.054;25.146;2023-11-19T00:11:18;6.83;;;3.63;;
61407;SDS011;47274;43.054;25.146;2023-11-19T00:14:07;8.70;;;3.50;;
61407;SDS011;47274;43.054;25.146;2023-11-19T00:19:30;7.03;;;3.50;;
61407;SDS011;47274;43.054;25.146;2023-11-19T00:25:42;9.33;;;3.93;;
61407;SDS011;47274;43.054;25.146;2023-11-19T00:28:28;9.30;;;4.20;;
61407;SDS011;47274;43.054;25.146;2023-11-19T00:31:22;6.53;;;3.83;;
61407;SDS011;47274;43.054;25.146;2023-11-19T00:34:14;6.80;;;3.40;;
61407;SDS011;47274;43.054;25.146;2023-11-19T00:40:34;7.00;;;3.40;;
61407;SDS011;47274;43.054;25.146;2023-11-19T00:43:44;7.73;;;3.47;;
61407;SDS011;47274;43.054;25.146;2023-11-19T00:46:58;5.97;;;3.63;;
61407;SDS011;47274;43.054;25.146;2023-11-19T00:49:45;9.57;;;3.80;;
61407;SDS011;47274;43.054;25.146;2023-11-19T00:52:45;7.10;;;3.70;;
61407;SDS011;47274;43.054;25.146;2023-11-19T00:55:32;8.40;;;3.60;;
61407;SDS011;47274;43.054;25.146;2023-11-19T00:58:18;8.57;;;3.70;;
61407;SDS011;47274;43.054;25.146;2023-11-19T01:01:31;8.37;;;3.73;;
61407;SDS011;47274;43.054;25.146;2023-11-19T01:04:25;10.00;;;3.90;;
61407;SDS011;47274;43.054;25.146;2023-11-19T01:07:14;6.93;;;3.70;;
61407;SDS011;47274;43.054;25.146;2023-11-19T01:10:07;8.77;;;4.20;;
61407;SDS011;47274;43.054;25.146;2023-11-19T01:12:59;7.50;;;3.77;;
61407;SDS011;47274;43.054;25.146;2023-11-19T01:15:40;7.63;;;4.17;;
61407;SDS011;47274;43.054;25.146;2023-11-19T01:18:26;7.37;;;3.70;;
61407;SDS011;47274;43.054;25.146;2023-11-19T01:21:15;9.63;;;3.97;;
61407;SDS011;47274;43.054;25.146;2023-11-19T01:24:23;9.63;;;4.10;;
61407;SDS011;47274;43.054;25.146;2023-11-19T01:27:41;7.73;;;4.03;;
61407;SDS011;47274;43.054;25.146;2023-11-19T01:30:17;12.80;;;5.50;;
61407;SDS011;47274;43.054;25.146;2023-11-19T01:33:04;12.83;;;6.00;;
61407;SDS011;47274;43.054;25.146;2023-11-19T01:36:29;10.37;;;4.43;;
61407;SDS011;47274;43.054;25.146;2023-11-19T01:39:43;7.83;;;4.30;;
61407;SDS011;47274;43.054;25.146;2023-11-19T01:42:29;7.30;;;3.80;;
61407;SDS011;47274;43.054;25.146;2023-11-19T01:45:36;10.43;;;4.53;;
61407;SDS011;47274;43.054;25.146;2023-11-19T01:48:34;8.80;;;4.20;;
61407;SDS011;47274;43.054;25.146;2023-11-19T01:51:28;9.27;;;4.10;;
61407;SDS011;47274;43.054;25.146;2023-11-19T01:54:17;9.37;;;4.40;;
61407;SDS011;47274;43.054;25.146;2023-11-19T01:57:27;9.97;;;4.63;;
61407;SDS011;47274;43.054;25.146;2023-11-19T02:00:25;9.70;;;3.77;;
61407;SDS011;47274;43.054;25.146;2023-11-19T02:03:03;9.27;;;4.07;;
61407;SDS011;47274;43.054;25.146;2023-11-19T02:06:06;10.20;;;4.33;;
61407;SDS011;47274;43.054;25.146;2023-11-19T02:08:55;7.63;;;4.00;;
61407;SDS011;47274;43.054;25.146;2023-11-19T02:11:49;8.93;;;4.30;;
61407;SDS011;47274;43.054;25.146;2023-11-19T02:14:35;8.60;;;4.00;;
61407;SDS011;47274;43.054;25.146;2023-11-19T02:17:09;10.50;;;4.35;;
61407;SDS011;47274;43.054;25.146;2023-11-19T02:23:02;12.10;;;5.03;;
61407;SDS011;47274;43.054;25.146;2023-11-19T02:25:42;10.60;;;4.47;;
61407;SDS011;47274;43.054;25.146;2023-11-19T02:28:40;9.13;;;4.33;;
61407;SDS011;47274;43.054;25.146;2023-11-19T02:31:32;9.57;;;4.28;;
61407;SDS011;47274;43.054;25.146;2023-11-19T02:34:44;11.50;;;4.77;;
61407;SDS011;47274;43.054;25.146;2023-11-19T02:37:32;12.13;;;4.20;;
61407;SDS011;47274;43.054;25.146;2023-11-19T02:40:28;11.13;;;4.60;;
61407;SDS011;47274;43.054;25.146;2023-11-19T02:43:01;9.07;;;4.23;;
61407;SDS011;47274;43.054;25.146;2023-11-19T02:45:48;10.80;;;4.87;;
61407;SDS011;47274;43.054;25.146;2023-11-19T02:48:44;11.17;;;4.53;;
61407;SDS011;47274;43.054;25.146;2023-11-19T02:51:28;8.10;;;4.23;;
61407;SDS011;47274;43.054;25.146;2023-11-19T02:54:23;9.60;;;4.17;;
61407;SDS011;47274;43.054;25.146;2023-11-19T02:57:10;9.90;;;4.50;;
61407;SDS011;47274;43.054;25.146;2023-11-19T02:59:54;9.33;;;4.50;;
61407;SDS011;47274;43.054;25.146;2023-11-19T03:02:48;11.20;;;4.80;;
61407;SDS011;47274;43.054;25.146;2023-11-19T03:05:58;11.70;;;4.80;;
61407;SDS011;47274;43.054;25.146;2023-11-19T03:08:42;9.63;;;4.27;;
61407;SDS011;47274;43.054;25.146;2023-11-19T03:11:21;13.60;;;5.23;;
61407;SDS011;47274;43.054;25.146;2023-11-19T03:14:17;11.23;;;5.23;;
61407;SDS011;47274;43.054;25.146;2023-11-19T03:17:02;11.77;;;4.67;;
61407;SDS011;47274;43.054;25.146;2023-11-19T03:20:11;10.63;;;4.80;;
61407;SDS011;47274;43.054;25.146;2023-11-19T03:23:13;8.47;;;4.43;;
61407;SDS011;47274;43.054;25.146;2023-11-19T03:26:22;8.37;;;4.43;;
61407;SDS011;47274;43.054;25.146;2023-11-19T03:29:16;9.73;;;4.53;;
61407;SDS011;47274;43.054;25.146;2023-11-19T03:35:01;8.97;;;4.47;;
61407;SDS011;47274;43.054;25.146;2023-11-19T03:37:47;9.13;;;4.60;;
61407;SDS011;47274;43.054;25.146;2023-11-19T03:40:40;11.53;;;4.90;;
61407;SDS011;47274;43.054;25.146;2023-11-19T03:43:49;8.50;;;4.20;;
61407;SDS011;47274;43.054;25.146;2023-11-19T03:46:36;7.38;;;4.00;;
61407;SDS011;47274;43.054;25.146;2023-11-19T03:49:27;10.73;;;4.57;;
61407;SDS011;47274;43.054;25.146;2023-11-19T03:52:26;8.48;;;4.63;;
61407;SDS011;47274;43.054;25.146;2023-11-19T03:55:32;10.00;;;4.67;;
61407;SDS011;47274;43.054;25.146;2023-11-19T03:58:41;9.57;;;4.50;;
61407;SDS011;47274;43.054;25.146;2023-11-19T04:01:35;11.53;;;5.13;;
61407;SDS011;47274;43.054;25.146;2023-11-19T04:04:21;10.87;;;5.03;;
61407;SDS011;47274;43.054;25.146;2023-11-19T04:06:53;10.73;;;4.75;;
61407;SDS011;47274;43.054;25.146;2023-11-19T04:09:51;10.77;;;4.97;;
61407;SDS011;47274;43.054;25.146;2023-11-19T04:12:44;12.00;;;5.27;;
61407;SDS011;47274;43.054;25.146;2023-11-19T04:15:46;12.90;;;5.97;;
61407;SDS011;47274;43.054;25.146;2023-11-19T04:18:58;10.90;;;4.73;;
61407;SDS011;47274;43.054;25.146;2023-11-19T04:21:53;11.27;;;5.67;;
61407;SDS011;47274;43.054;25.146;2023-11-19T04:24:31;10.93;;;5.60;;
61407;SDS011;47274;43.054;25.146;2023-11-19T04:27:28;13.30;;;5.13;;
61407;SDS011;47274;43.054;25.146;2023-11-19T04:30:32;13.57;;;5.93;;
61407;SDS011;47274;43.054;25.146;2023-11-19T04:33:11;12.77;;;5.13;;
61407;SDS011;47274;43.054;25.146;2023-11-19T04:35:58;13.27;;;5.30;;
61407;SDS011;47274;43.054;25.146;2023-11-19T04:38:47;10.90;;;5.23;;
61407;SDS011;47274;43.054;25.146;2023-11-19T04:50:57;14.43;;;5.93;;
61407;SDS011;47274;43.054;25.146;2023-11-19T04:53:55;12.67;;;5.50;;
61407;SDS011;47274;43.054;25.146;2023-11-19T04:56:36;13.60;;;6.30;;
61407;SDS011;47274;43.054;25.146;2023-11-19T04:59:39;14.10;;;5.87;;
61407;SDS011;47274;43.054;25.146;2023-11-19T05:02:18;15.20;;;6.23;;
61407;SDS011;47274;43.054;25.146;2023-11-19T05:05:07;13.70;;;6.03;;
61407;SDS011;47274;43.054;25.146;2023-11-19T05:08:18;11.80;;;5.77;;
61407;SDS011;47274;43.054;25.146;2023-11-19T05:11:07;13.97;;;6.17;;
61407;SDS011;47274;43.054;25.146;2023-11-19T05:13:53;12.90;;;5.83;;
61407;SDS011;47274;43.054;25.146;2023-11-19T05:16:37;13.23;;;5.90;;
61407;SDS011;47274;43.054;25.146;2023-11-19T05:19:33;14.37;;;5.87;;
61407;SDS011;47274;43.054;25.146;2023-11-19T05:22:20;14.70;;;6.57;;
61407;SDS011;47274;43.054;25.146;2023-11-19T05:25:11;12.03;;;5.87;;
61407;SDS011;47274;43.054;25.146;2023-11-19T05:28:15;13.20;;;5.87;;
61407;SDS011;47274;43.054;25.146;2023-11-19T05:34:01;14.00;;;6.30;;
61407;SDS011;47274;43.054;25.146;2023-11-19T05:36:47;15.90;;;5.93;;
61407;SDS011;47274;43.054;25.146;2023-11-19T05:39:51;12.43;;;5.57;;
61407;SDS011;47274;43.054;25.146;2023-11-19T05:42:49;13.63;;;6.30;;
61407;SDS011;47274;43.054;25.146;2023-11-19T05:45:43;12.10;;;5.97;;
61407;SDS011;47274;43.054;25.146;2023-11-19T05:48:27;15.27;;;6.40;;
61407;SDS011;47274;43.054;25.146;2023-11-19T05:51:28;11.57;;;5.40;;
61407;SDS011;47274;43.054;25.146;2023-11-19T05:54:30;14.17;;;6.20;;
61407;SDS011;47274;43.054;25.146;2023-11-19T05:57:27;11.87;;;5.80;;
61407;SDS011;47274;43.054;25.146;2023-11-19T06:00:15;13.37;;;6.20;;
61407;SDS011;47274;43.054;25.146;2023-11-19T06:03:03;12.67;;;6.10;;
61407;SDS011;47274;43.054;25.146;2023-11-19T06:06:04;13.73;;;6.00;;
61407;SDS011;47274;43.054;25.146;2023-11-19T06:08:59;12.90;;;6.40;;
61407;SDS011;47274;43.054;25.146;2023-11-19T06:11:52;14.67;;;6.40;;
61407;SDS011;47274;43.054;25.146;2023-11-19T06:14:54;11.60;;;5.53;;
61407;SDS011;47274;43.054;25.146;2023-11-19T06:18:19;12.83;;;5.67;;
61407;SDS011;47274;43.054;25.146;2023-11-19T06:21:19;11.43;;;5.97;;
61407;SDS011;47274;43.054;25.146;2023-11-19T06:24:16;13.73;;;5.87;;
61407;SDS011;47274;43.054;25.146;2023-11-19T06:27:11;11.07;;;5.80;;
61407;SDS011;47274;43.054;25.146;2023-11-19T06:30:05;13.00;;;5.80;;
61407;SDS011;47274;43.054;25.146;2023-11-19T06:33:12;15.63;;;7.23;;
61407;SDS011;47274;43.054;25.146;2023-11-19T06:36:18;13.80;;;6.23;;
61407;SDS011;47274;43.054;25.146;2023-11-19T06:39:05;13.17;;;5.90;;
61407;SDS011;47274;43.054;25.146;2023-11-19T06:41:48;14.57;;;5.90;;
61407;SDS011;47274;43.054;25.146;2023-11-19T06:44:42;11.93;;;5.50;;
61407;SDS011;47274;43.054;25.146;2023-11-19T06:47:28;13.37;;;5.87;;
61407;SDS011;47274;43.054;25.146;2023-11-19T06:50:54;13.70;;;5.73;;
61407;SDS011;47274;43.054;25.146;2023-11-19T06:53:55;11.57;;;5.50;;
61407;SDS011;47274;43.054;25.146;2023-11-19T06:56:52;13.60;;;6.00;;
61407;SDS011;47274;43.054;25.146;2023-11-19T06:59:41;12.70;;;5.87;;
61407;SDS011;47274;43.054;25.146;2023-11-19T07:02:14;15.25;;;6.75;;
61407;SDS011;47274;43.054;25.146;2023-11-19T07:05:12;15.40;;;7.60;;
61407;SDS011;47274;43.054;25.146;2023-11-19T07:08:13;11.77;;;5.77;;
61407;SDS011;47274;43.054;25.146;2023-11-19T07:11:01;12.30;;;6.17;;
61407;SDS011;47274;43.054;25.146;2023-11-19T07:14:27;12.93;;;6.33;;
61407;SDS011;47274;43.054;25.146;2023-11-19T07:17:26;17.27;;;7.70;;
61407;SDS011;47274;43.054;25.146;2023-11-19T07:20:22;17.77;;;7.53;;
61407;SDS011;47274;43.054;25.146;2023-11-19T07:23:43;19.97;;;8.70;;
61407;SDS011;47274;43.054;25.146;2023-11-19T07:26:35;16.47;;;6.73;;
61407;SDS011;47274;43.054;25.146;2023-11-19T07:29:26;13.67;;;6.30;;
61407;SDS011;47274;43.054;25.146;2023-11-19T07:32:41;13.80;;;6.47;;
61407;SDS011;47274;43.054;25.146;2023-11-19T07:35:29;11.20;;;5.33;;
61407;SDS011;47274;43.054;25.146;2023-11-19T07:38:23;13.40;;;5.70;;
61407;SDS011;47274;43.054;25.146;2023-11-19T07:41:15;14.33;;;6.00;;
61407;SDS011;47274;43.054;25.146;2023-11-19T07:47:23;14.35;;;6.22;;
61407;SDS011;47274;43.054;25.146;2023-11-19T07:50:16;12.97;;;6.20;;
61407;SDS011;47274;43.054;25.146;2023-11-19T07:52:55;11.13;;;5.67;;
61407;SDS011;47274;43.054;25.146;2023-11-19T07:56:01;13.67;;;7.00;;
61407;SDS011;47274;43.054;25.146;2023-11-19T07:58:46;11.00;;;5.70;;
61407;SDS011;47274;43.054;25.146;2023-11-19T08:01:22;12.63;;;5.90;;
61407;SDS011;47274;43.054;25.146;2023-11-19T08:04:08;11.50;;;5.50;;
61407;SDS011;47274;43.054;25.146;2023-11-19T08:07:06;10.17;;;5.40;;
61407;SDS011;47274;43.054;25.146;2023-11-19T08:09:54;10.20;;;5.30;;
61407;SDS011;47274;43.054;25.146;2023-11-19T08:12:54;12.87;;;5.77;;
61407;SDS011;47274;43.054;25.146;2023-11-19T08:15:49;14.53;;;6.80;;
61407;SDS011;47274;43.054;25.146;2023-11-19T08:18:38;11.93;;;6.57;;
61407;SDS011;47274;43.054;25.146;2023-11-19T08:21:41;11.90;;;5.90;;
61407;SDS011;47274;43.054;25.146;2023-11-19T08:24:34;9.95;;;5.00;;
61407;SDS011;47274;43.054;25.146;2023-11-19T08:27:26;10.73;;;5.20;;
61407;SDS011;47274;43.054;25.146;2023-11-19T08:30:09;14.47;;;6.60;;
61407;SDS011;47274;43.054;25.146;2023-11-19T08:32:44;12.30;;;6.10;;
61407;SDS011;47274;43.054;25.146;2023-11-19T08:35:31;15.20;;;6.80;;
61407;SDS011;47274;43.054;25.146;2023-11-19T08:38:26;16.77;;;8.50;;
61407;SDS011;47274;43.054;25.146;2023-11-19T08:41:21;12.50;;;5.80;;
61407;SDS011;47274;43.054;25.146;2023-11-19T08:44:19;12.67;;;5.97;;
61407;SDS011;47274;43.054;25.146;2023-11-19T08:47:19;11.73;;;6.00;;
61407;SDS011;47274;43.054;25.146;2023-11-19T08:50:21;10.80;;;5.53;;
61407;SDS011;47274;43.054;25.146;2023-11-19T08:53:09;12.23;;;5.33;;
61407;SDS011;47274;43.054;25.146;2023-11-19T08:56:21;7.53;;;5.00;;
61407;SDS011;47274;43.054;25.146;2023-11-19T08:59:04;9.77;;;5.00;;
61407;SDS011;47274;43.054;25.146;2023-11-19T09:04:54;12.23;;;5.93;;
61407;SDS011;47274;43.054;25.146;2023-11-19T09:07:41;14.00;;;6.55;;
61407;SDS011;47274;43.054;25.146;2023-11-19T09:10:21;11.07;;;5.15;;
61407;SDS011;47274;43.054;25.146;2023-11-19T09:13:04;15.20;;;6.72;;
61407;SDS011;47274;43.054;25.146;2023-11-19T09:16:04;12.40;;;6.13;;
61407;SDS011;47274;43.054;25.146;2023-11-19T09:18:33;12.25;;;6.00;;
61407;SDS011;47274;43.054;25.146;2023-11-19T09:21:13;15.10;;;6.28;;
61407;SDS011;47274;43.054;25.146;2023-11-19T09:23:41;10.45;;;5.50;;
61407;SDS011;47274;43.054;25.146;2023-11-19T09:26:15;9.45;;;4.97;;
61407;SDS011;47274;43.054;25.146;2023-11-19T09:28:41;9.00;;;5.07;;
61407;SDS011;47274;43.054;25.146;2023-11-19T09:31:16;7.30;;;4.43;;
61407;SDS011;47274;43.054;25.146;2023-11-19T09:33:43;7.65;;;4.50;;
61407;SDS011;47274;43.054;25.146;2023-11-19T09:36:16;6.32;;;4.05;;
61407;SDS011;47274;43.054;25.146;2023-11-19T09:38:43;8.25;;;4.47;;
61407;SDS011;47274;43.054;25.146;2023-11-19T09:41:14;9.70;;;4.82;;
61407;SDS011;47274;43.054;25.146;2023-11-19T09:43:53;11.05;;;5.25;;
61407;SDS011;47274;43.054;25.146;2023-11-19T09:46:34;5.57;;;4.07;;
61407;SDS011;47274;43.054;25.146;2023-11-19T09:49:17;6.20;;;4.25;;
61407;SDS011;47274;43.054;25.146;2023-11-19T09:52:11;7.82;;;4.57;;
61407;SDS011;47274;43.054;25.146;2023-11-19T09:54:37;7.30;;;4.65;;
61407;SDS011;47274;43.054;25.146;2023-11-19T09:57:05;6.20;;;3.92;;
61407;SDS011;47274;43.054;25.146;2023-11-19T09:59:33;5.40;;;3.97;;
61407;SDS011;47274;43.054;25.146;2023-11-19T10:01:59;6.20;;;4.10;;
61407;SDS011;47274;43.054;25.146;2023-11-19T10:04:31;8.73;;;4.32;;
61407;SDS011;47274;43.054;25.146;2023-11-19T10:09:59;5.85;;;4.03;;
61407;SDS011;47274;43.054;25.146;2023-11-19T10:12:50;11.20;;;4.68;;
61407;SDS011;47274;43.054;25.146;2023-11-19T10:15:29;8.25;;;4.47;;
61407;SDS011;47274;43.054;25.146;2023-11-19T10:18:08;7.97;;;4.50;;
61407;SDS011;47274;43.054;25.146;2023-11-19T10:20:37;7.65;;;4.20;;
61407;SDS011;47274;43.054;25.146;2023-11-19T10:23:07;6.72;;;4.13;;
61407;SDS011;47274;43.054;25.146;2023-11-19T10:25:34;12.57;;;5.82;;
61407;SDS011;47274;43.054;25.146;2023-11-19T10:28:02;20.25;;;10.63;;
61407;SDS011;47274;43.054;25.146;2023-11-19T10:31:02;13.23;;;6.80;;
61407;SDS011;47274;43.054;25.146;2023-11-19T10:33:51;10.25;;;5.03;;
61407;SDS011;47274;43.054;25.146;2023-11-19T10:36:40;10.38;;;5.90;;
61407;SDS011;47274;43.054;25.146;2023-11-19T10:39:11;10.50;;;5.50;;
61407;SDS011;47274;43.054;25.146;2023-11-19T10:41:38;11.43;;;4.93;;
61407;SDS011;47274;43.054;25.146;2023-11-19T10:44:30;7.05;;;4.28;;
61407;SDS011;47274;43.054;25.146;2023-11-19T10:47:18;9.52;;;5.00;;
61407;SDS011;47274;43.054;25.146;2023-11-19T10:50:18;10.00;;;4.35;;
61407;SDS011;47274;43.054;25.146;2023-11-19T10:53:12;13.43;;;5.78;;
61407;SDS011;47274;43.054;25.146;2023-11-19T10:56:02;12.48;;;6.70;;
61407;SDS011;47274;43.054;25.146;2023-11-19T10:58:33;12.73;;;6.32;;
61407;SDS011;47274;43.054;25.146;2023-11-19T11:01:16;5.85;;;3.95;;
61407;SDS011;47274;43.054;25.146;2023-11-19T11:04:00;10.07;;;4.53;;
61407;SDS011;47274;43.054;25.146;2023-11-19T11:06:46;4.78;;;3.83;;
61407;SDS011;47274;43.054;25.146;2023-11-19T11:09:27;7.93;;;4.28;;
61407;SDS011;47274;43.054;25.146;2023-11-19T11:11:57;7.38;;;4.57;;
61407;SDS011;47274;43.054;25.146;2023-11-19T11:14:34;9.05;;;4.78;;
61407;SDS011;47274;43.054;25.146;2023-11-19T11:17:30;10.98;;;4.80;;
61407;SDS011;47274;43.054;25.146;2023-11-19T11:20:22;8.18;;;4.68;;
61407;SDS011;47274;43.054;25.146;2023-11-19T11:34:15;10.98;;;5.80;;
61407;SDS011;47274;43.054;25.146;2023-11-19T11:37:03;8.90;;;4.88;;
61407;SDS011;47274;43.054;25.146;2023-11-19T11:39:42;8.27;;;4.38;;
61407;SDS011;47274;43.054;25.146;2023-11-19T11:45:04;10.02;;;5.65;;
61407;SDS011;47274;43.054;25.146;2023-11-19T11:55:34;6.72;;;3.90;;
61407;SDS011;47274;43.054;25.146;2023-11-19T11:58:07;4.93;;;3.50;;
61407;SDS011;47274;43.054;25.146;2023-11-19T12:00:38;6.72;;;4.10;;
61407;SDS011;47274;43.054;25.146;2023-11-19T12:03:08;6.88;;;3.80;;
61407;SDS011;47274;43.054;25.146;2023-11-19T12:05:52;5.85;;;3.70;;
61407;SDS011;47274;43.054;25.146;2023-11-19T12:08:32;4.43;;;3.00;;
61407;SDS011;47274;43.054;25.146;2023-11-19T12:11:14;6.38;;;3.65;;
61407;SDS011;47274;43.054;25.146;2023-11-19T12:14:01;5.50;;;3.60;;
61407;SDS011;47274;43.054;25.146;2023-11-19T12:16:28;4.22;;;3.22;;
61407;SDS011;47274;43.054;25.146;2023-11-19T12:18:55;5.28;;;3.42;;
61407;SDS011;47274;43.054;25.146;2023-11-19T12:21:30;4.70;;;3.17;;
61407;SDS011;47274;43.054;25.146;2023-11-19T12:23:57;5.78;;;3.83;;
61407;SDS011;47274;43.054;25.146;2023-11-19T12:26:33;7.82;;;4.50;;
61407;SDS011;47274;43.054;25.146;2023-11-19T12:29:02;5.68;;;3.63;;
61407;SDS011;47274;43.054;25.146;2023-11-19T12:34:40;8.05;;;4.13;;
61407;SDS011;47274;43.054;25.146;2023-11-19T12:37:21;6.18;;;3.72;;
61407;SDS011;47274;43.054;25.146;2023-11-19T12:40:05;7.15;;;4.10;;
61407;SDS011;47274;43.054;25.146;2023-11-19T12:42:58;8.13;;;4.40;;
61407;SDS011;47274;43.054;25.146;2023-11-19T12:45:36;7.70;;;4.70;;
61407;SDS011;47274;43.054;25.146;2023-11-19T12:48:24;8.45;;;4.70;;
61407;SDS011;47274;43.054;25.146;2023-11-19T12:51:12;6.45;;;3.92;;
61407;SDS011;47274;43.054;25.146;2023-11-19T12:54:03;9.18;;;4.43;;
61407;SDS011;47274;43.054;25.146;2023-11-19T12:56:54;12.38;;;5.38;;
61407;SDS011;47274;43.054;25.146;2023-11-19T12:59:57;16.02;;;7.05;;
61407;SDS011;47274;43.054;25.146;2023-11-19T13:02:55;15.77;;;6.32;;
61407;SDS011;47274;43.054;25.146;2023-11-19T13:05:39;12.80;;;5.93;;
61407;SDS011;47274;43.054;25.146;2023-11-19T13:08:21;11.15;;;4.97;;
61407;SDS011;47274;43.054;25.146;2023-11-19T13:10:59;10.85;;;4.57;;
61407;SDS011;47274;43.054;25.146;2023-11-19T13:16:58;10.32;;;4.70;;
61407;SDS011;47274;43.054;25.146;2023-11-19T13:19:39;8.82;;;4.15;;
61407;SDS011;47274;43.054;25.146;2023-11-19T13:22:27;11.55;;;4.82;;
61407;SDS011;47274;43.054;25.146;2023-11-19T13:25:10;12.45;;;5.47;;
61407;SDS011;47274;43.054;25.146;2023-11-19T13:27:57;16.90;;;6.80;;
61407;SDS011;47274;43.054;25.146;2023-11-19T13:30:34;14.57;;;6.40;;
61407;SDS011;47274;43.054;25.146;2023-11-19T13:33:02;19.48;;;7.65;;
61407;SDS011;47274;43.054;25.146;2023-11-19T13:35:44;23.45;;;9.68;;
61407;SDS011;47274;43.054;25.146;2023-11-19T13:38:35;22.80;;;8.23;;
61407;SDS011;47274;43.054;25.146;2023-11-19T13:41:21;19.98;;;7.15;;
61407;SDS011;47274;43.054;25.146;2023-11-19T13:44:00;18.73;;;7.38;;
61407;SDS011;47274;43.054;25.146;2023-11-19T13:46:26;21.02;;;8.48;;
61407;SDS011;47274;43.054;25.146;2023-11-19T13:48:52;15.65;;;6.10;;
61407;SDS011;47274;43.054;25.146;2023-11-19T13:51:20;12.90;;;5.82;;
61407;SDS011;47274;43.054;25.146;2023-11-19T13:54:02;13.63;;;5.93;;
61407;SDS011;47274;43.054;25.146;2023-11-19T13:56:48;11.85;;;5.60;;
61407;SDS011;47274;43.054;25.146;2023-11-19T13:59:16;10.40;;;5.35;;
61407;SDS011;47274;43.054;25.146;2023-11-19T14:02:00;10.43;;;4.90;;
61407;SDS011;47274;43.054;25.146;2023-11-19T14:04:29;13.15;;;5.35;;
61407;SDS011;47274;43.054;25.146;2023-11-19T14:07:13;11.07;;;5.55;;
61407;SDS011;47274;43.054;25.146;2023-11-19T14:09:49;10.03;;;4.63;;
61407;SDS011;47274;43.054;25.146;2023-11-19T14:12:42;10.65;;;5.13;;
61407;SDS011;47274;43.054;25.146;2023-11-19T14:15:09;24.77;;;11.13;;
61407;SDS011;47274;43.054;25.146;2023-11-19T14:17:35;28.73;;;13.17;;
61407;SDS011;47274;43.054;25.146;2023-11-19T14:20:02;23.37;;;9.93;;
61407;SDS011;47274;43.054;25.146;2023-11-19T14:22:48;33.27;;;13.17;;
61407;SDS011;47274;43.054;25.146;2023-11-19T14:25:19;21.90;;;9.00;;
61407;SDS011;47274;43.054;25.146;2023-11-19T14:28:04;26.88;;;11.63;;
61407;SDS011;47274;43.054;25.146;2023-11-19T14:30:45;26.63;;;10.87;;
61407;SDS011;47274;43.054;25.146;2023-11-19T14:33:32;23.90;;;9.93;;
61407;SDS011;47274;43.054;25.146;2023-11-19T14:36:11;23.63;;;9.63;;
61407;SDS011;47274;43.054;25.146;2023-11-19T14:38:37;25.90;;;8.73;;
61407;SDS011;47274;43.054;25.146;2023-11-19T14:41:03;28.77;;;10.60;;
61407;SDS011;47274;43.054;25.146;2023-11-19T14:43:30;25.83;;;9.83;;
61407;SDS011;47274;43.054;25.146;2023-11-19T14:45:56;55.30;;;20.50;;
61407;SDS011;47274;43.054;25.146;2023-11-19T14:48:24;27.80;;;10.13;;
61407;SDS011;47274;43.054;25.146;2023-11-19T14:50:50;32.17;;;12.27;;
61407;SDS011;47274;43.054;25.146;2023-11-19T14:53:22;27.07;;;9.93;;
61407;SDS011;47274;43.054;25.146;2023-11-19T14:56:05;49.93;;;20.40;;
61407;SDS011;47274;43.054;25.146;2023-11-19T14:58:46;32.40;;;11.10;;
61407;SDS011;47274;43.054;25.146;2023-11-19T15:01:27;27.52;;;10.18;;
61407;SDS011;47274;43.054;25.146;2023-11-19T15:04:07;24.67;;;9.60;;
61407;SDS011;47274;43.054;25.146;2023-11-19T15:06:36;26.27;;;9.13;;
61407;SDS011;47274;43.054;25.146;2023-11-19T15:09:02;26.00;;;9.47;;
61407;SDS011;47274;43.054;25.146;2023-11-19T15:11:28;24.50;;;9.37;;
61407;SDS011;47274;43.054;25.146;2023-11-19T15:13:56;54.47;;;22.73;;
61407;SDS011;47274;43.054;25.146;2023-11-19T15:16:40;29.10;;;10.30;;
61407;SDS011;47274;43.054;25.146;2023-11-19T15:19:26;27.00;;;9.68;;
61407;SDS011;47274;43.054;25.146;2023-11-19T15:22:17;23.80;;;8.90;;
61407;SDS011;47274;43.054;25.146;2023-11-19T15:24:43;23.57;;;9.17;;
61407;SDS011;47274;43.054;25.146;2023-11-19T15:27:09;19.67;;;8.67;;
61407;SDS011;47274;43.054;25.146;2023-11-19T15:29:37;19.63;;;7.77;;
61407;SDS011;47274;43.054;25.146;2023-11-19T15:32:05;20.30;;;8.87;;
61407;SDS011;47274;43.054;25.146;2023-11-19T15:34:34;26.93;;;11.13;;
61407;SDS011;47274;43.054;25.146;2023-11-19T15:37:05;23.83;;;9.97;;
61407;SDS011;47274;43.054;25.146;2023-11-19T15:39:36;20.87;;;9.80;;
61407;SDS011;47274;43.054;25.146;2023-11-19T15:42:17;20.43;;;8.57;;
61407;SDS011;47274;43.054;25.146;2023-11-19T15:44:59;20.93;;;8.27;;
61407;SDS011;47274;43.054;25.146;2023-11-19T15:47:44;17.33;;;7.53;;
61407;SDS011;47274;43.054;25.146;2023-11-19T15:50:19;18.40;;;7.70;;
61407;SDS011;47274;43.054;25.146;2023-11-19T15:52:45;20.87;;;8.90;;
61407;SDS011;47274;43.054;25.146;2023-11-19T15:55:11;17.23;;;7.43;;
61407;SDS011;47274;43.054;25.146;2023-11-19T15:57:37;16.47;;;6.80;;
61407;SDS011;47274;43.054;25.146;2023-11-19T16:00:04;16.40;;;6.83;;
61407;SDS011;47274;43.054;25.146;2023-11-19T16:02:31;14.63;;;5.90;;
61407;SDS011;47274;43.054;25.146;2023-11-19T16:04:57;13.10;;;6.30;;
61407;SDS011;47274;43.054;25.146;2023-11-19T16:07:24;13.17;;;6.13;;
61407;SDS011;47274;43.054;25.146;2023-11-19T16:09:55;11.50;;;5.70;;
61407;SDS011;47274;43.054;25.146;2023-11-19T16:12:21;13.30;;;5.90;;
61407;SDS011;47274;43.054;25.146;2023-11-19T16:14:48;17.43;;;7.47;;
61407;SDS011;47274;43.054;25.146;2023-11-19T16:17:17;16.47;;;8.03;;
61407;SDS011;47274;43.054;25.146;2023-11-19T16:20:05;17.27;;;8.00;;
61407;SDS011;47274;43.054;25.146;2023-11-19T16:22:51;21.50;;;8.67;;
61407;SDS011;47274;43.054;25.146;2023-11-19T16:27:57;30.97;;;13.90;;
61407;SDS011;47274;43.054;25.146;2023-11-19T16:30:26;22.90;;;8.83;;
61407;SDS011;47274;43.054;25.146;2023-11-19T16:33:11;18.63;;;7.23;;
61407;SDS011;47274;43.054;25.146;2023-11-19T16:35:58;22.67;;;10.40;;
61407;SDS011;47274;43.054;25.146;2023-11-19T16:38:38;23.00;;;9.57;;
61407;SDS011;47274;43.054;25.146;2023-11-19T16:41:04;20.73;;;9.50;;
61407;SDS011;47274;43.054;25.146;2023-11-19T16:43:36;23.23;;;11.67;;
61407;SDS011;47274;43.054;25.146;2023-11-19T16:46:20;19.10;;;8.47;;
61407;SDS011;47274;43.054;25.146;2023-11-19T16:48:57;17.23;;;8.10;;
61407;SDS011;47274;43.054;25.146;2023-11-19T16:51:35;15.87;;;7.20;;
61407;SDS011;47274;43.054;25.146;2023-11-19T16:54:01;15.93;;;6.63;;
61407;SDS011;47274;43.054;25.146;2023-11-19T16:56:27;13.67;;;6.23;;
61407;SDS011;47274;43.054;25.146;2023-11-19T16:58:53;13.80;;;6.70;;
61407;SDS011;47274;43.054;25.146;2023-11-19T17:01:21;14.60;;;6.43;;
61407;SDS011;47274;43.054;25.146;2023-11-19T17:04:03;14.57;;;6.60;;
61407;SDS011;47274;43.054;25.146;2023-11-19T17:06:46;17.13;;;7.97;;
61407;SDS011;47274;43.054;25.146;2023-11-19T17:09:25;14.97;;;7.00;;
61407;SDS011;47274;43.054;25.146;2023-11-19T17:11:53;14.73;;;6.43;;
61407;SDS011;47274;43.054;25.146;2023-11-19T17:14:24;14.67;;;7.13;;
61407;SDS011;47274;43.054;25.146;2023-11-19T17:17:13;13.57;;;6.50;;
61407;SDS011;47274;43.054;25.146;2023-11-19T17:20:02;16.57;;;7.97;;
61407;SDS011;47274;43.054;25.146;2023-11-19T17:22:42;13.00;;;6.27;;